This is the latest recevied weather packets stored in our database for station/object KB3HLL. If no packets are shown the sender has not sent any weather packets the latest 10 day(s).
| Time | Temp. | Humidity | Pressure | Rain* | Wind** | Luminosity | Snow |
|---|---|---|---|---|---|---|---|
| 1777987880 | 16.11° C | 83% | 1011.4 hPa | 0 mm | - | 556 W/m² | - |
| 1777987579 | 16.67° C | 81% | 1011.4 hPa | 0 mm | - | 551 W/m² | - |
| 1777987280 | 16.67° C | 78% | 1011.4 hPa | 0.25 mm | - | 528 W/m² | - |
| 1777986980 | 16.11° C | 79% | 1011.4 hPa | 0.51 mm | - | 501 W/m² | - |
| 1777986680 | 15.56° C | 84% | 1011.7 hPa | 0.51 mm | - | 491 W/m² | - |
| 1777986378 | 16.11° C | 85% | 1011.4 hPa | 1.02 mm | - | 452 W/m² | - |
| 1777986080 | 16.67° C | 86% | 1011.6 hPa | 1.52 mm | - | 425 W/m² | - |
| 1777985779 | 17.22° C | 74% | 1011.3 hPa | 1.52 mm | - | 397 W/m² | - |
| 1777985479 | 16.67° C | 76% | 1011.3 hPa | 1.52 mm | - | 423 W/m² | - |
| 1777985178 | 16.67° C | 77% | 1011.3 hPa | 1.52 mm | - | 378 W/m² | - |
| 1777984879 | 16.11° C | 78% | 1011.4 hPa | 1.52 mm | - | 359 W/m² | - |
| 1777984580 | 15.56° C | 80% | 1011.4 hPa | 1.52 mm | - | 108 W/m² | - |
| 1777984279 | 15.56° C | 81% | 1011.7 hPa | 1.27 mm | - | 95 W/m² | - |
| 1777983979 | 15° C | 82% | 1011.6 hPa | 1.02 mm | - | 150 W/m² | - |
| 1777983680 | 14.44° C | 83% | 1011.6 hPa | 1.02 mm | - | 47 W/m² | - |
| 1777983379 | 14.44° C | 84% | 1011.8 hPa | 0.76 mm | - | 16 W/m² | - |
| 1777983080 | 14.44° C | 86% | 1011.8 hPa | 0.51 mm | - | 14 W/m² | - |
| 1777982780 | 14.44° C | 85% | 1012 hPa | 0.51 mm | - | 16 W/m² | - |
| 1777982486 | 15° C | 83% | 1012.1 hPa | 0 mm | - | 33 W/m² | - |
| 1777982014 | 16.11° C | 81% | 1011.8 hPa | 0 mm | - | 20 W/m² | - |
| 1777981578 | 16.11° C | 70% | 1011.6 hPa | 0 mm | - | 43 W/m² | - |
| 1777981278 | 16.11° C | 71% | 1011.6 hPa | 0 mm | - | 76 W/m² | - |
| 1777980980 | 16.11° C | 72% | 1011.4 hPa | 0 mm | - | 95 W/m² | - |
| 1777980677 | 16.11° C | 70% | 1011.2 hPa | 0 mm | - | 95 W/m² | - |
| 1777980380 | 16.11° C | 70% | 1011.1 hPa | 0 mm | - | 70 W/m² | - |
* Rain latest hour (hover to see other rain measurements)
** Current wind speed in m/s (hover to see current wind gust speed)